sensor_id;sensor_type;location;lat;lon;timestamp;pressure;altitude;pressure_sealevel;temperature;humidity
40574;BME280;26283;49.020;8.644;2023-03-04T00:02:20;99899.91;;;9.95;51.06
40574;BME280;26283;49.020;8.644;2023-03-04T00:04:45;99900.09;;;9.93;51.10
40574;BME280;26283;49.020;8.644;2023-03-04T00:07:11;99907.34;;;9.93;51.08
40574;BME280;26283;49.020;8.644;2023-03-04T00:09:44;99917.09;;;9.94;51.05
40574;BME280;26283;49.020;8.644;2023-03-04T00:12:09;99911.91;;;9.92;51.09
40574;BME280;26283;49.020;8.644;2023-03-04T00:14:35;99914.78;;;9.91;51.09
40574;BME280;26283;49.020;8.644;2023-03-04T00:17:00;99914.78;;;9.91;51.13
40574;BME280;26283;49.020;8.644;2023-03-04T00:19:29;99913.12;;;9.90;51.12
40574;BME280;26283;49.020;8.644;2023-03-04T00:21:54;99915.81;;;9.90;51.17
40574;BME280;26283;49.020;8.644;2023-03-04T00:24:19;99915.19;;;9.88;51.26
40574;BME280;26283;49.020;8.644;2023-03-04T00:26:45;99917.87;;;9.88;51.19
40574;BME280;26283;49.020;8.644;2023-03-04T00:29:10;99906.47;;;9.86;51.16
40574;BME280;26283;49.020;8.644;2023-03-04T00:31:36;99909.16;;;9.86;51.23
40574;BME280;26283;49.020;8.644;2023-03-04T00:34:01;99911.03;;;9.85;51.22
40574;BME280;26283;49.020;8.644;2023-03-04T00:36:27;99908.34;;;9.85;51.16
40574;BME280;26283;49.020;8.644;2023-03-04T00:38:52;99912.06;;;9.84;51.25
40574;BME280;26283;49.020;8.644;2023-03-04T00:41:17;99903.16;;;9.84;51.22
40574;BME280;26283;49.020;8.644;2023-03-04T00:43:43;99914.94;;;9.83;51.20
40574;BME280;26283;49.020;8.644;2023-03-04T00:46:08;99911.41;;;9.82;51.11
40574;BME280;26283;49.020;8.644;2023-03-04T00:48:33;99917.00;;;9.81;51.04
40574;BME280;26283;49.020;8.644;2023-03-04T00:50:59;99913.47;;;9.80;51.07
40574;BME280;26283;49.020;8.644;2023-03-04T00:53:24;99917.37;;;9.78;51.05
40574;BME280;26283;49.020;8.644;2023-03-04T00:55:50;99912.00;;;9.78;51.05
40574;BME280;26283;49.020;8.644;2023-03-04T00:58:15;99911.16;;;9.77;51.05
40574;BME280;26283;49.020;8.644;2023-03-04T01:00:40;99908.69;;;9.76;51.08
40574;BME280;26283;49.020;8.644;2023-03-04T01:03:06;99913.03;;;9.77;51.06
40574;BME280;26283;49.020;8.644;2023-03-04T01:05:31;99917.78;;;9.75;51.10
40574;BME280;26283;49.020;8.644;2023-03-04T01:08:00;99918.84;;;9.74;51.10
40574;BME280;26283;49.020;8.644;2023-03-04T01:10:25;99917.16;;;9.73;51.17
40574;BME280;26283;49.020;8.644;2023-03-04T01:12:51;99919.88;;;9.73;51.20
40574;BME280;26283;49.020;8.644;2023-03-04T01:15:16;99918.19;;;9.72;51.19
40574;BME280;26283;49.020;8.644;2023-03-04T01:17:42;99911.16;;;9.71;51.22
40574;BME280;26283;49.020;8.644;2023-03-04T01:20:08;99913.00;;;9.70;51.17
40574;BME280;26283;49.020;8.644;2023-03-04T01:22:33;99914.88;;;9.70;51.20
40574;BME280;26283;49.020;8.644;2023-03-04T01:24:59;99915.06;;;9.68;51.18
40574;BME280;26283;49.020;8.644;2023-03-04T01:27:25;99912.75;;;9.65;51.07
40574;BME280;26283;49.020;8.644;2023-03-04T01:29:50;99906.53;;;9.65;51.06
40574;BME280;26283;49.020;8.644;2023-03-04T01:32:15;99909.25;;;9.65;51.02
40574;BME280;26283;49.020;8.644;2023-03-04T01:34:41;99908.59;;;9.62;51.03
40574;BME280;26283;49.020;8.644;2023-03-04T01:37:06;99907.78;;;9.62;51.04
40574;BME280;26283;49.020;8.644;2023-03-04T01:39:32;99905.91;;;9.62;51.04
40574;BME280;26283;49.020;8.644;2023-03-04T01:41:58;99906.09;;;9.61;51.09
40574;BME280;26283;49.020;8.644;2023-03-04T01:44:23;99914.19;;;9.61;51.05
40574;BME280;26283;49.020;8.644;2023-03-04T01:46:52;99907.97;;;9.60;51.11
40574;BME280;26283;49.020;8.644;2023-03-04T01:49:18;99906.50;;;9.58;51.08
40574;BME280;26283;49.020;8.644;2023-03-04T01:51:47;99906.50;;;9.58;50.95
40574;BME280;26283;49.020;8.644;2023-03-04T01:54:17;99904.84;;;9.57;51.04
40574;BME280;26283;49.020;8.644;2023-03-04T01:56:45;99906.69;;;9.56;51.01
40574;BME280;26283;49.020;8.644;2023-03-04T01:59:25;99899.66;;;9.55;51.06
40574;BME280;26283;49.020;8.644;2023-03-04T02:01:54;99897.97;;;9.54;51.30
40574;BME280;26283;49.020;8.644;2023-03-04T02:04:22;99894.69;;;9.52;51.02
40574;BME280;26283;49.020;8.644;2023-03-04T02:06:48;99892.78;;;9.53;51.02
40574;BME280;26283;49.020;8.644;2023-03-04T02:09:15;99893.03;;;9.51;51.07
40574;BME280;26283;49.020;8.644;2023-03-04T02:11:43;99894.03;;;9.50;51.00
40574;BME280;26283;49.020;8.644;2023-03-04T02:14:09;99884.13;;;9.51;51.08
40574;BME280;26283;49.020;8.644;2023-03-04T02:16:35;99886.16;;;9.49;51.04
40574;BME280;26283;49.020;8.644;2023-03-04T02:19:01;99885.34;;;9.48;51.05
40574;BME280;26283;49.020;8.644;2023-03-04T02:21:28;99882.62;;;9.48;51.06
40574;BME280;26283;49.020;8.644;2023-03-04T02:24:16;99884.50;;;9.48;51.04
40574;BME280;26283;49.020;8.644;2023-03-04T02:26:43;99883.03;;;9.45;51.35
40574;BME280;26283;49.020;8.644;2023-03-04T02:29:12;99875.78;;;9.46;50.92
40574;BME280;26283;49.020;8.644;2023-03-04T02:31:39;99874.13;;;9.45;50.99
40574;BME280;26283;49.020;8.644;2023-03-04T02:34:10;99883.22;;;9.44;51.00
40574;BME280;26283;49.020;8.644;2023-03-04T02:36:37;99885.28;;;9.42;51.05
40574;BME280;26283;49.020;8.644;2023-03-04T02:39:07;99877.41;;;9.40;50.96
40574;BME280;26283;49.020;8.644;2023-03-04T02:41:35;99880.09;;;9.40;51.07
40574;BME280;26283;49.020;8.644;2023-03-04T02:44:01;99881.13;;;9.39;50.95
40574;BME280;26283;49.020;8.644;2023-03-04T02:46:26;99876.75;;;9.38;51.01
40574;BME280;26283;49.020;8.644;2023-03-04T02:48:51;99880.47;;;9.37;51.04
40574;BME280;26283;49.020;8.644;2023-03-04T02:51:17;99882.34;;;9.37;50.97
40574;BME280;26283;49.020;8.644;2023-03-04T02:53:43;99879.00;;;9.35;51.00
40574;BME280;26283;49.020;8.644;2023-03-04T02:56:08;99885.22;;;9.35;51.03
40574;BME280;26283;49.020;8.644;2023-03-04T02:58:33;99882.72;;;9.34;51.01
40574;BME280;26283;49.020;8.644;2023-03-04T03:00:59;99882.72;;;9.34;51.04
40574;BME280;26283;49.020;8.644;2023-03-04T03:03:24;99885.59;;;9.32;51.06
40574;BME280;26283;49.020;8.644;2023-03-04T03:05:49;99878.56;;;9.31;50.98
40574;BME280;26283;49.020;8.644;2023-03-04T03:08:15;99876.94;;;9.30;50.97
40574;BME280;26283;49.020;8.644;2023-03-04T03:10:41;99877.94;;;9.29;50.98
40574;BME280;26283;49.020;8.644;2023-03-04T03:13:06;99872.78;;;9.27;50.98
40574;BME280;26283;49.020;8.644;2023-03-04T03:15:32;99869.06;;;9.28;51.01
40574;BME280;26283;49.020;8.644;2023-03-04T03:17:57;99876.47;;;9.26;51.08
40574;BME280;26283;49.020;8.644;2023-03-04T03:20:23;99875.66;;;9.26;50.97
40574;BME280;26283;49.020;8.644;2023-03-04T03:22:48;99884.75;;;9.25;51.00
40574;BME280;26283;49.020;8.644;2023-03-04T03:25:14;99883.06;;;9.24;50.96
40574;BME280;26283;49.020;8.644;2023-03-04T03:27:40;99881.41;;;9.23;51.01
40574;BME280;26283;49.020;8.644;2023-03-04T03:30:08;99885.13;;;9.22;50.96
40574;BME280;26283;49.020;8.644;2023-03-04T03:32:34;99880.78;;;9.21;51.07
40574;BME280;26283;49.020;8.644;2023-03-04T03:34:59;99879.09;;;9.20;51.03
40574;BME280;26283;49.020;8.644;2023-03-04T03:37:25;99878.28;;;9.19;50.92
40574;BME280;26283;49.020;8.644;2023-03-04T03:39:50;99876.63;;;9.18;51.04
40574;BME280;26283;49.020;8.644;2023-03-04T03:42:15;99883.84;;;9.18;51.04
40574;BME280;26283;49.020;8.644;2023-03-04T03:44:41;99887.56;;;9.17;50.93
40574;BME280;26283;49.020;8.644;2023-03-04T03:47:06;99879.69;;;9.15;50.96
40574;BME280;26283;49.020;8.644;2023-03-04T03:49:31;99874.31;;;9.15;50.94
40574;BME280;26283;49.020;8.644;2023-03-04T03:51:57;99878.03;;;9.14;50.98
40574;BME280;26283;49.020;8.644;2023-03-04T03:54:22;99872.84;;;9.13;51.02
40574;BME280;26283;49.020;8.644;2023-03-04T03:56:48;99874.69;;;9.12;50.96
40574;BME280;26283;49.020;8.644;2023-03-04T03:59:13;99872.19;;;9.11;50.90
40574;BME280;26283;49.020;8.644;2023-03-04T04:01:38;99872.19;;;9.11;50.95
40574;BME280;26283;49.020;8.644;2023-03-04T04:04:04;99875.91;;;9.10;51.01
40574;BME280;26283;49.020;8.644;2023-03-04T04:06:29;99872.41;;;9.09;51.02
40574;BME280;26283;49.020;8.644;2023-03-04T04:08:55;99869.91;;;9.08;50.99
40574;BME280;26283;49.020;8.644;2023-03-04T04:11:21;99870.13;;;9.06;50.97
40574;BME280;26283;49.020;8.644;2023-03-04T04:13:46;99877.34;;;9.06;51.04
40574;BME280;26283;49.020;8.644;2023-03-04T04:16:11;99879.19;;;9.05;51.00
40574;BME280;26283;49.020;8.644;2023-03-04T04:18:37;99882.09;;;9.04;50.95
40574;BME280;26283;49.020;8.644;2023-03-04T04:21:03;99886.63;;;9.03;50.93
40574;BME280;26283;49.020;8.644;2023-03-04T04:23:28;99885.78;;;9.03;50.95
40574;BME280;26283;49.020;8.644;2023-03-04T04:25:54;99887.66;;;9.02;50.96
40574;BME280;26283;49.020;8.644;2023-03-04T04:28:20;99887.84;;;9.01;50.98
40574;BME280;26283;49.020;8.644;2023-03-04T04:30:45;99883.50;;;9.00;50.98
40574;BME280;26283;49.020;8.644;2023-03-04T04:33:11;99884.50;;;8.99;50.97
40574;BME280;26283;49.020;8.644;2023-03-04T04:35:36;99882.84;;;8.98;50.96
40574;BME280;26283;49.020;8.644;2023-03-04T04:38:05;99879.53;;;8.96;50.94
40574;BME280;26283;49.020;8.644;2023-03-04T04:40:31;99882.22;;;8.96;50.90
40574;BME280;26283;49.020;8.644;2023-03-04T04:42:57;99884.06;;;8.95;50.99
40574;BME280;26283;49.020;8.644;2023-03-04T04:45:23;99888.59;;;8.94;50.94
40574;BME280;26283;49.020;8.644;2023-03-04T04:47:52;99892.31;;;8.93;50.90
40574;BME280;26283;49.020;8.644;2023-03-04T04:50:18;99893.53;;;8.91;50.88
40574;BME280;26283;49.020;8.644;2023-03-04T04:52:43;99894.37;;;8.91;50.97
40574;BME280;26283;49.020;8.644;2023-03-04T04:55:09;99886.50;;;8.90;50.86
40574;BME280;26283;49.020;8.644;2023-03-04T04:57:35;99889.38;;;8.88;50.73
40574;BME280;26283;49.020;8.644;2023-03-04T05:00:02;99891.22;;;8.88;50.78
40574;BME280;26283;49.020;8.644;2023-03-04T05:02:28;99889.38;;;8.88;50.82
40574;BME280;26283;49.020;8.644;2023-03-04T05:04:54;99894.97;;;8.87;50.84
40574;BME280;26283;49.020;8.644;2023-03-04T05:07:19;99895.16;;;8.85;50.85
40574;BME280;26283;49.020;8.644;2023-03-04T05:09:44;99900.53;;;8.85;50.81
40574;BME280;26283;49.020;8.644;2023-03-04T05:12:10;99889.97;;;8.84;50.75
40574;BME280;26283;49.020;8.644;2023-03-04T05:14:35;99899.06;;;8.83;50.81
40574;BME280;26283;49.020;8.644;2023-03-04T05:17:00;99903.59;;;8.82;50.84
40574;BME280;26283;49.020;8.644;2023-03-04T05:19:26;99893.03;;;8.81;50.86
40574;BME280;26283;49.020;8.644;2023-03-04T05:21:51;99902.94;;;8.80;50.89
40574;BME280;26283;49.020;8.644;2023-03-04T05:24:17;99896.75;;;8.80;50.86
40574;BME280;26283;49.020;8.644;2023-03-04T05:26:42;99894.25;;;8.78;50.83
40574;BME280;26283;49.020;8.644;2023-03-04T05:29:07;99896.09;;;8.78;50.82
40574;BME280;26283;49.020;8.644;2023-03-04T05:31:33;99896.28;;;8.76;50.81
40574;BME280;26283;49.020;8.644;2023-03-04T05:33:58;99893.78;;;8.75;50.80
40574;BME280;26283;49.020;8.644;2023-03-04T05:36:23;99896.47;;;8.75;50.80
40574;BME280;26283;49.020;8.644;2023-03-04T05:38:49;99896.66;;;8.73;50.77
40574;BME280;26283;49.020;8.644;2023-03-04T05:41:14;99893.34;;;8.71;50.74
40574;BME280;26283;49.020;8.644;2023-03-04T05:43:43;99897.06;;;8.70;50.87
40574;BME280;26283;49.020;8.644;2023-03-04T05:46:13;99894.37;;;8.70;50.75
40574;BME280;26283;49.020;8.644;2023-03-04T05:48:39;99894.56;;;8.69;50.94
40574;BME280;26283;49.020;8.644;2023-03-04T05:51:04;99899.09;;;8.68;50.88
40574;BME280;26283;49.020;8.644;2023-03-04T05:53:30;99904.47;;;8.68;50.84
40574;BME280;26283;49.020;8.644;2023-03-04T05:55:55;99907.34;;;8.67;50.86
40574;BME280;26283;49.020;8.644;2023-03-04T05:58:23;99906.50;;;8.66;50.85
40574;BME280;26283;49.020;8.644;2023-03-04T06:00:48;99912.09;;;8.65;50.82
40574;BME280;26283;49.020;8.644;2023-03-04T06:03:16;99913.94;;;8.64;50.88
40574;BME280;26283;49.020;8.644;2023-03-04T06:05:42;99919.31;;;8.64;50.85
40574;BME280;26283;49.020;8.644;2023-03-04T06:08:07;99912.28;;;8.63;50.80
40574;BME280;26283;49.020;8.644;2023-03-04T06:10:33;99921.38;;;8.62;50.93
40574;BME280;26283;49.020;8.644;2023-03-04T06:12:58;99925.91;;;8.62;50.92
40574;BME280;26283;49.020;8.644;2023-03-04T06:15:23;99923.41;;;8.60;50.87
40574;BME280;26283;49.020;8.644;2023-03-04T06:17:49;99924.44;;;8.59;50.93
40574;BME280;26283;49.020;8.644;2023-03-04T06:20:14;99929.81;;;8.59;50.86
40574;BME280;26283;49.020;8.644;2023-03-04T06:22:39;99922.75;;;8.58;50.85
40574;BME280;26283;49.020;8.644;2023-03-04T06:25:06;99938.06;;;8.57;50.86
40574;BME280;26283;49.020;8.644;2023-03-04T06:27:31;99935.56;;;8.56;50.90
40574;BME280;26283;49.020;8.644;2023-03-04T06:29:57;99935.94;;;8.53;50.88
40574;BME280;26283;49.020;8.644;2023-03-04T06:32:22;99941.94;;;8.55;50.97
40574;BME280;26283;49.020;8.644;2023-03-04T06:34:47;99942.13;;;8.53;50.97
40574;BME280;26283;49.020;8.644;2023-03-04T06:37:13;99944.81;;;8.53;51.02
40574;BME280;26283;49.020;8.644;2023-03-04T06:39:38;99945.00;;;8.52;50.99
40574;BME280;26283;49.020;8.644;2023-03-04T06:42:04;99940.66;;;8.51;51.11
40574;BME280;26283;49.020;8.644;2023-03-04T06:44:29;99947.03;;;8.50;51.12
40574;BME280;26283;49.020;8.644;2023-03-04T06:46:54;99955.09;;;8.50;51.15
40574;BME280;26283;49.020;8.644;2023-03-04T06:49:20;99947.22;;;8.48;51.21
40574;BME280;26283;49.020;8.644;2023-03-04T06:51:45;99949.91;;;8.48;51.31
40574;BME280;26283;49.020;8.644;2023-03-04T06:54:10;99953.81;;;8.46;51.33
40574;BME280;26283;49.020;8.644;2023-03-04T06:56:36;99953.81;;;8.46;51.42
40574;BME280;26283;49.020;8.644;2023-03-04T06:59:01;99952.97;;;8.45;51.42
40574;BME280;26283;49.020;8.644;2023-03-04T07:01:27;99958.34;;;8.45;51.45
40574;BME280;26283;49.020;8.644;2023-03-04T07:03:53;99961.25;;;8.44;51.46
40574;BME280;26283;49.020;8.644;2023-03-04T07:06:21;99961.25;;;8.44;51.53
40574;BME280;26283;49.020;8.644;2023-03-04T07:08:47;99964.97;;;8.43;51.61
40574;BME280;26283;49.020;8.644;2023-03-04T07:11:13;99957.09;;;8.41;51.61
40574;BME280;26283;49.020;8.644;2023-03-04T07:13:39;99958.94;;;8.41;51.55
40574;BME280;26283;49.020;8.644;2023-03-04T07:16:06;99957.91;;;8.42;51.64
40574;BME280;26283;49.020;8.644;2023-03-04T07:18:32;99965.31;;;8.40;51.69
40574;BME280;26283;49.020;8.644;2023-03-04T07:20:57;99972.38;;;8.41;51.78
40574;BME280;26283;49.020;8.644;2023-03-04T07:23:22;99976.06;;;8.40;51.80
40574;BME280;26283;49.020;8.644;2023-03-04T07:25:48;99970.03;;;8.38;51.87
40574;BME280;26283;49.020;8.644;2023-03-04T07:28:15;99971.91;;;8.37;51.90
40574;BME280;26283;49.020;8.644;2023-03-04T07:30:40;99973.75;;;8.37;51.92
40574;BME280;26283;49.020;8.644;2023-03-04T07:33:06;99967.72;;;8.35;51.98
40574;BME280;26283;49.020;8.644;2023-03-04T07:35:31;99971.44;;;8.34;52.09
40574;BME280;26283;49.020;8.644;2023-03-04T07:37:56;99971.44;;;8.34;52.09
40574;BME280;26283;49.020;8.644;2023-03-04T07:40:22;99979.50;;;8.34;52.15
40574;BME280;26283;49.020;8.644;2023-03-04T07:42:51;99985.87;;;8.33;52.18
40574;BME280;26283;49.020;8.644;2023-03-04T07:45:16;99992.25;;;8.32;52.23
40574;BME280;26283;49.020;8.644;2023-03-04T07:47:42;99984.19;;;8.32;52.24
40574;BME280;26283;49.020;8.644;2023-03-04T07:50:08;99982.50;;;8.31;52.28
40574;BME280;26283;49.020;8.644;2023-03-04T07:52:40;99993.25;;;8.31;52.31
40574;BME280;26283;49.020;8.644;2023-03-04T07:55:07;99991.59;;;8.30;52.37
40574;BME280;26283;49.020;8.644;2023-03-04T07:57:33;99993.25;;;8.31;52.36
40574;BME280;26283;49.020;8.644;2023-03-04T07:59:58;99994.47;;;8.28;52.35
40574;BME280;26283;49.020;8.644;2023-03-04T08:02:23;100000.66;;;8.29;52.38
40574;BME280;26283;49.020;8.644;2023-03-04T08:04:49;100001.69;;;8.27;52.42
40574;BME280;26283;49.020;8.644;2023-03-04T08:07:14;100003.53;;;8.27;52.45
40574;BME280;26283;49.020;8.644;2023-03-04T08:09:39;100013.25;;;8.28;52.50
40574;BME280;26283;49.020;8.644;2023-03-04T08:12:05;100007.22;;;8.26;52.54
40574;BME280;26283;49.020;8.644;2023-03-04T08:14:30;100011.78;;;8.25;52.62
40574;BME280;26283;49.020;8.644;2023-03-04T08:16:56;100015.47;;;8.24;52.64
40574;BME280;26283;49.020;8.644;2023-03-04T08:19:21;100012.59;;;8.26;52.70
40574;BME280;26283;49.020;8.644;2023-03-04T08:21:47;100011.94;;;8.24;52.77
40574;BME280;26283;49.020;8.644;2023-03-04T08:24:12;100011.13;;;8.23;52.78
40574;BME280;26283;49.020;8.644;2023-03-04T08:26:41;100007.59;;;8.23;52.81
40574;BME280;26283;49.020;8.644;2023-03-04T08:29:13;100005.75;;;8.23;52.85
40574;BME280;26283;49.020;8.644;2023-03-04T08:31:39;100022.91;;;8.22;52.85
40574;BME280;26283;49.020;8.644;2023-03-04T08:34:05;100014.84;;;8.22;52.91
40574;BME280;26283;49.020;8.644;2023-03-04T08:36:31;100013.19;;;8.21;52.93
40574;BME280;26283;49.020;8.644;2023-03-04T08:38:57;100016.87;;;8.20;52.92
40574;BME280;26283;49.020;8.644;2023-03-04T08:41:22;100005.31;;;8.20;52.97
40574;BME280;26283;49.020;8.644;2023-03-04T08:43:49;100011.53;;;8.20;52.99
40574;BME280;26283;49.020;8.644;2023-03-04T08:46:15;100020.59;;;8.19;53.02
40574;BME280;26283;49.020;8.644;2023-03-04T08:48:40;100005.50;;;8.18;53.12
40574;BME280;26283;49.020;8.644;2023-03-04T08:51:08;100009.00;;;8.19;53.10
40574;BME280;26283;49.020;8.644;2023-03-04T08:53:33;100010.03;;;8.18;53.17
40574;BME280;26283;49.020;8.644;2023-03-04T08:55:59;100005.50;;;8.18;53.12
40574;BME280;26283;49.020;8.644;2023-03-04T08:58:24;100010.88;;;8.18;53.14
40574;BME280;26283;49.020;8.644;2023-03-04T09:00:49;100011.88;;;8.17;53.17
40574;BME280;26283;49.020;8.644;2023-03-04T09:03:17;100012.72;;;8.18;53.18
40574;BME280;26283;49.020;8.644;2023-03-04T09:05:45;100007.53;;;8.16;53.25
40574;BME280;26283;49.020;8.644;2023-03-04T09:08:12;100010.22;;;8.16;53.25
40574;BME280;26283;49.020;8.644;2023-03-04T09:10:38;100015.59;;;8.16;53.30
40574;BME280;26283;49.020;8.644;2023-03-04T09:13:03;100012.91;;;8.16;53.34
40574;BME280;26283;49.020;8.644;2023-03-04T09:15:30;100008.53;;;8.15;53.42
40574;BME280;26283;49.020;8.644;2023-03-04T09:18:00;100004.84;;;8.16;53.42
40574;BME280;26283;49.020;8.644;2023-03-04T09:20:26;100004.84;;;8.16;53.46
40574;BME280;26283;49.020;8.644;2023-03-04T09:22:52;100009.38;;;8.16;53.52
40574;BME280;26283;49.020;8.644;2023-03-04T09:25:17;100004.00;;;8.16;53.52
40574;BME280;26283;49.020;8.644;2023-03-04T09:27:42;100011.22;;;8.15;53.52
40574;BME280;26283;49.020;8.644;2023-03-04T09:30:08;99998.00;;;8.14;53.62
40574;BME280;26283;49.020;8.644;2023-03-04T09:32:34;100003.34;;;8.14;53.66
40574;BME280;26283;49.020;8.644;2023-03-04T09:35:00;100013.09;;;8.15;53.61
40574;BME280;26283;49.020;8.644;2023-03-04T09:37:25;100008.72;;;8.14;53.58
40574;BME280;26283;49.020;8.644;2023-03-04T09:39:50;100005.03;;;8.15;53.63
40574;BME280;26283;49.020;8.644;2023-03-04T09:42:37;100009.56;;;8.14;53.66
40574;BME280;26283;49.020;8.644;2023-03-04T09:45:07;100004.19;;;8.14;53.78
40574;BME280;26283;49.020;8.644;2023-03-04T09:47:34;100014.94;;;8.14;53.53
40574;BME280;26283;49.020;8.644;2023-03-04T09:50:06;100006.03;;;8.14;53.56
40574;BME280;26283;49.020;8.644;2023-03-04T09:55:27;100019.47;;;8.14;53.68
40574;BME280;26283;49.020;8.644;2023-03-04T10:00:44;100023.16;;;8.13;53.64
40574;BME280;26283;49.020;8.644;2023-03-04T10:03:11;100022.34;;;8.12;53.47
40574;BME280;26283;49.020;8.644;2023-03-04T10:06:05;100023.16;;;8.13;53.48
40574;BME280;26283;49.020;8.644;2023-03-04T10:11:12;100022.16;;;8.14;53.48
40574;BME280;26283;49.020;8.644;2023-03-04T10:13:45;100017.97;;;8.11;53.66
40574;BME280;26283;49.020;8.644;2023-03-04T10:16:18;100026.87;;;8.12;53.63
40574;BME280;26283;49.020;8.644;2023-03-04T10:18:49;100020.66;;;8.11;53.63
40574;BME280;26283;49.020;8.644;2023-03-04T10:21:25;100021.50;;;8.12;53.62
40574;BME280;26283;49.020;8.644;2023-03-04T10:23:53;100021.50;;;8.12;53.61
40574;BME280;26283;49.020;8.644;2023-03-04T10:26:20;100020.66;;;8.11;53.64
40574;BME280;26283;49.020;8.644;2023-03-04T10:28:47;100017.97;;;8.11;53.71
40574;BME280;26283;49.020;8.644;2023-03-04T10:31:26;100014.47;;;8.11;53.77
40574;BME280;26283;49.020;8.644;2023-03-04T10:33:54;100015.28;;;8.11;53.80
40574;BME280;26283;49.020;8.644;2023-03-04T10:39:00;100036.87;;;8.18;54.65
40574;BME280;26283;49.020;8.644;2023-03-04T10:41:29;100036.53;;;8.21;54.44
40574;BME280;26283;49.020;8.644;2023-03-04T10:46:22;100028.28;;;8.22;54.37
40574;BME280;26283;49.020;8.644;2023-03-04T10:48:48;100030.13;;;8.22;54.38
40574;BME280;26283;49.020;8.644;2023-03-04T10:51:19;100022.91;;;8.22;54.42
40574;BME280;26283;49.020;8.644;2023-03-04T10:53:48;100020.41;;;8.21;54.45
40574;BME280;26283;49.020;8.644;2023-03-04T10:56:31;100024.94;;;8.20;54.47
40574;BME280;26283;49.020;8.644;2023-03-04T11:02:23;100023.28;;;8.19;54.56
40574;BME280;26283;49.020;8.644;2023-03-04T11:04:50;100006.34;;;8.19;54.54
40574;BME280;26283;49.020;8.644;2023-03-04T11:07:18;100006.34;;;8.19;54.57
40574;BME280;26283;49.020;8.644;2023-03-04T11:09:44;100009.84;;;8.19;54.62
40574;BME280;26283;49.020;8.644;2023-03-04T11:12:12;99998.28;;;8.19;54.64
40574;BME280;26283;49.020;8.644;2023-03-04T11:14:46;100010.88;;;8.18;54.66
40574;BME280;26283;49.020;8.644;2023-03-04T11:17:42;100005.50;;;8.18;54.67
40574;BME280;26283;49.020;8.644;2023-03-04T11:20:25;100000.13;;;8.18;54.71
40574;BME280;26283;49.020;8.644;2023-03-04T11:22:53;99999.09;;;8.19;54.71
40574;BME280;26283;49.020;8.644;2023-03-04T11:26:15;99993.75;;;8.19;54.71
40574;BME280;26283;49.020;8.644;2023-03-04T11:28:22;99994.75;;;8.18;54.74
40574;BME280;26283;49.020;8.644;2023-03-04T11:30:56;99996.44;;;8.19;54.73
40574;BME280;26283;49.020;8.644;2023-03-04T11:33:42;99995.59;;;8.19;54.76
40574;BME280;26283;49.020;8.644;2023-03-04T11:36:41;99997.25;;;8.20;54.77
40574;BME280;26283;49.020;8.644;2023-03-04T11:39:18;99997.25;;;8.20;54.78
40574;BME280;26283;49.020;8.644;2023-03-04T11:41:54;99985.69;;;8.19;54.76
40574;BME280;26283;49.020;8.644;2023-03-04T11:44:22;99991.06;;;8.19;54.82
40574;BME280;26283;49.020;8.644;2023-03-04T11:49:47;99987.34;;;8.20;54.83
40574;BME280;26283;49.020;8.644;2023-03-04T12:24:27;99946.69;;;8.23;54.84
40574;BME280;26283;49.020;8.644;2023-03-04T12:27:14;99945.66;;;8.24;54.83
40574;BME280;26283;49.020;8.644;2023-03-04T12:32:46;99941.31;;;8.23;54.83
40574;BME280;26283;49.020;8.644;2023-03-04T12:41:32;99919.81;;;8.23;54.92
40574;BME280;26283;49.020;8.644;2023-03-04T12:44:17;99917.97;;;8.24;54.94
40574;BME280;26283;49.020;8.644;2023-03-04T12:47:43;99917.97;;;8.24;54.89
40574;BME280;26283;49.020;8.644;2023-03-04T12:49:51;99921.50;;;8.24;54.92
40574;BME280;26283;49.020;8.644;2023-03-04T12:55:19;99916.13;;;8.24;54.94
40574;BME280;26283;49.020;8.644;2023-03-04T12:57:47;99912.59;;;8.24;54.93
40574;BME280;26283;49.020;8.644;2023-03-04T13:00:44;99914.47;;;8.23;54.95
40574;BME280;26283;49.020;8.644;2023-03-04T13:06:04;99909.72;;;8.25;54.93
40574;BME280;26283;49.020;8.644;2023-03-04T13:11:42;99900.84;;;8.25;54.95
40574;BME280;26283;49.020;8.644;2023-03-04T13:16:49;99898.16;;;8.25;54.93
40574;BME280;26283;49.020;8.644;2023-03-04T13:25:35;99896.13;;;8.27;54.95
40574;BME280;26283;49.020;8.644;2023-03-04T13:41:14;99903.16;;;8.28;54.96
40574;BME280;26283;49.020;8.644;2023-03-04T13:43:48;99895.94;;;8.29;54.95
40574;BME280;26283;49.020;8.644;2023-03-04T13:49:00;99896.78;;;8.29;54.92
40574;BME280;26283;49.020;8.644;2023-03-04T13:51:30;99894.09;;;8.29;54.96
40574;BME280;26283;49.020;8.644;2023-03-04T14:01:59;99885.84;;;8.31;54.92
40574;BME280;26283;49.020;8.644;2023-03-04T14:04:26;99889.34;;;8.31;54.96
40574;BME280;26283;49.020;8.644;2023-03-04T14:06:54;99886.66;;;8.31;54.92
40574;BME280;26283;49.020;8.644;2023-03-04T14:09:27;99878.63;;;8.31;54.92
40574;BME280;26283;49.020;8.644;2023-03-04T14:11:55;99876.75;;;8.32;54.92
40574;BME280;26283;49.020;8.644;2023-03-04T14:14:44;99870.41;;;8.33;54.91
40574;BME280;26283;49.020;8.644;2023-03-04T14:17:18;99875.78;;;8.33;54.94
40574;BME280;26283;49.020;8.644;2023-03-04T14:19:46;99865.03;;;8.33;54.88
40574;BME280;26283;49.020;8.644;2023-03-04T14:24:57;99864.19;;;8.32;54.91
40574;BME280;26283;49.020;8.644;2023-03-04T14:27:26;99866.88;;;8.32;54.91
40574;BME280;26283;49.020;8.644;2023-03-04T14:30:03;99862.34;;;8.33;54.88
40574;BME280;26283;49.020;8.644;2023-03-04T14:32:30;99856.97;;;8.33;54.89
40574;BME280;26283;49.020;8.644;2023-03-04T14:35:06;99858.66;;;8.34;54.88
40574;BME280;26283;49.020;8.644;2023-03-04T14:37:49;99853.47;;;8.32;54.91
40574;BME280;26283;49.020;8.644;2023-03-04T14:40:24;99849.75;;;8.33;54.89
40574;BME280;26283;49.020;8.644;2023-03-04T14:42:55;99846.06;;;8.34;54.90
40574;BME280;26283;49.020;8.644;2023-03-04T14:45:22;99850.59;;;8.34;54.90
40574;BME280;26283;49.020;8.644;2023-03-04T14:47:52;99848.75;;;8.34;54.90
40574;BME280;26283;49.020;8.644;2023-03-04T14:50:19;99851.41;;;8.34;54.90
40574;BME280;26283;49.020;8.644;2023-03-04T14:52:49;99844.19;;;8.35;54.90
40574;BME280;26283;49.020;8.644;2023-03-04T14:57:48;99844.00;;;8.36;54.89
40574;BME280;26283;49.020;8.644;2023-03-04T15:02:46;99841.31;;;8.36;54.88